sensor_id;sensor_type;location;lat;lon;timestamp;P1;durP1;ratioP1;P2;durP2;ratioP2
13847;SDS011;6994;49.752;6.094;2024-01-11T00:02:00;32.57;;;17.70;;
13847;SDS011;6994;49.752;6.094;2024-01-11T00:04:27;24.08;;;13.73;;
13847;SDS011;6994;49.752;6.094;2024-01-11T00:06:54;25.50;;;13.73;;
13847;SDS011;6994;49.752;6.094;2024-01-11T00:09:21;34.73;;;21.57;;
13847;SDS011;6994;49.752;6.094;2024-01-11T00:11:49;29.02;;;17.15;;
13847;SDS011;6994;49.752;6.094;2024-01-11T00:14:16;32.50;;;20.70;;
13847;SDS011;6994;49.752;6.094;2024-01-11T00:16:43;26.85;;;16.12;;
13847;SDS011;6994;49.752;6.094;2024-01-11T00:19:10;24.10;;;14.30;;
13847;SDS011;6994;49.752;6.094;2024-01-11T00:21:37;22.42;;;13.57;;
13847;SDS011;6994;49.752;6.094;2024-01-11T00:24:05;23.02;;;13.50;;
13847;SDS011;6994;49.752;6.094;2024-01-11T00:26:32;27.43;;;17.73;;
13847;SDS011;6994;49.752;6.094;2024-01-11T00:28:59;23.45;;;12.75;;
13847;SDS011;6994;49.752;6.094;2024-01-11T00:31:26;21.40;;;13.02;;
13847;SDS011;6994;49.752;6.094;2024-01-11T00:33:53;23.35;;;12.20;;
13847;SDS011;6994;49.752;6.094;2024-01-11T00:36:21;20.50;;;12.20;;
13847;SDS011;6994;49.752;6.094;2024-01-11T00:38:48;27.50;;;17.70;;
13847;SDS011;6994;49.752;6.094;2024-01-11T00:41:15;21.33;;;13.20;;
13847;SDS011;6994;49.752;6.094;2024-01-11T00:43:42;24.55;;;13.82;;
13847;SDS011;6994;49.752;6.094;2024-01-11T00:46:10;23.67;;;14.13;;
13847;SDS011;6994;49.752;6.094;2024-01-11T00:48:38;22.95;;;12.40;;
13847;SDS011;6994;49.752;6.094;2024-01-11T00:51:06;21.23;;;11.27;;
13847;SDS011;6994;49.752;6.094;2024-01-11T00:53:33;19.42;;;10.35;;
13847;SDS011;6994;49.752;6.094;2024-01-11T00:56:00;28.07;;;17.50;;
13847;SDS011;6994;49.752;6.094;2024-01-11T00:58:27;22.50;;;12.65;;
13847;SDS011;6994;49.752;6.094;2024-01-11T01:00:54;22.50;;;12.40;;
13847;SDS011;6994;49.752;6.094;2024-01-11T01:03:22;21.23;;;12.27;;
13847;SDS011;6994;49.752;6.094;2024-01-11T01:05:49;20.62;;;10.98;;
13847;SDS011;6994;49.752;6.094;2024-01-11T01:08:16;21.25;;;11.23;;
13847;SDS011;6994;49.752;6.094;2024-01-11T01:10:43;18.77;;;10.85;;
13847;SDS011;6994;49.752;6.094;2024-01-11T01:13:10;21.05;;;12.60;;
13847;SDS011;6994;49.752;6.094;2024-01-11T01:15:38;15.65;;;10.27;;
13847;SDS011;6994;49.752;6.094;2024-01-11T01:18:05;20.27;;;10.77;;
13847;SDS011;6994;49.752;6.094;2024-01-11T01:20:32;24.67;;;11.32;;
13847;SDS011;6994;49.752;6.094;2024-01-11T01:22:59;21.85;;;11.57;;
13847;SDS011;6994;49.752;6.094;2024-01-11T01:25:26;22.30;;;12.15;;
13847;SDS011;6994;49.752;6.094;2024-01-11T01:27:54;23.58;;;12.27;;
13847;SDS011;6994;49.752;6.094;2024-01-11T01:30:21;19.12;;;10.27;;
13847;SDS011;6994;49.752;6.094;2024-01-11T01:32:48;28.23;;;17.70;;
13847;SDS011;6994;49.752;6.094;2024-01-11T01:35:15;29.07;;;19.43;;
13847;SDS011;6994;49.752;6.094;2024-01-11T01:37:42;22.40;;;13.18;;
13847;SDS011;6994;49.752;6.094;2024-01-11T01:40:10;24.00;;;13.23;;
13847;SDS011;6994;49.752;6.094;2024-01-11T01:42:41;20.27;;;11.60;;
13847;SDS011;6994;49.752;6.094;2024-01-11T01:45:07;23.15;;;13.62;;
13847;SDS011;6994;49.752;6.094;2024-01-11T01:47:34;22.58;;;11.80;;
13847;SDS011;6994;49.752;6.094;2024-01-11T01:50:01;22.75;;;11.85;;
13847;SDS011;6994;49.752;6.094;2024-01-11T01:52:29;22.50;;;11.82;;
13847;SDS011;6994;49.752;6.094;2024-01-11T01:54:56;28.63;;;18.73;;
13847;SDS011;6994;49.752;6.094;2024-01-11T01:57:23;23.08;;;14.38;;
13847;SDS011;6994;49.752;6.094;2024-01-11T01:59:51;24.05;;;13.45;;
13847;SDS011;6994;49.752;6.094;2024-01-11T02:02:19;22.02;;;12.20;;
13847;SDS011;6994;49.752;6.094;2024-01-11T02:04:45;25.40;;;12.52;;
13847;SDS011;6994;49.752;6.094;2024-01-11T02:07:12;31.33;;;17.80;;
13847;SDS011;6994;49.752;6.094;2024-01-11T02:09:39;23.77;;;13.60;;
13847;SDS011;6994;49.752;6.094;2024-01-11T02:12:06;24.17;;;12.93;;
13847;SDS011;6994;49.752;6.094;2024-01-11T02:14:34;19.35;;;11.75;;
13847;SDS011;6994;49.752;6.094;2024-01-11T02:17:01;22.85;;;12.73;;
13847;SDS011;6994;49.752;6.094;2024-01-11T02:19:28;20.52;;;11.80;;
13847;SDS011;6994;49.752;6.094;2024-01-11T02:21:55;21.37;;;11.95;;
13847;SDS011;6994;49.752;6.094;2024-01-11T02:24:22;21.52;;;10.93;;
13847;SDS011;6994;49.752;6.094;2024-01-11T02:26:59;22.48;;;11.38;;
13847;SDS011;6994;49.752;6.094;2024-01-11T02:29:26;22.08;;;11.38;;
13847;SDS011;6994;49.752;6.094;2024-01-11T02:31:54;20.40;;;11.88;;
13847;SDS011;6994;49.752;6.094;2024-01-11T02:34:20;21.77;;;11.30;;
13847;SDS011;6994;49.752;6.094;2024-01-11T02:36:47;18.00;;;11.23;;
13847;SDS011;6994;49.752;6.094;2024-01-11T02:39:15;27.77;;;12.05;;
13847;SDS011;6994;49.752;6.094;2024-01-11T02:41:42;29.53;;;18.10;;
13847;SDS011;6994;49.752;6.094;2024-01-11T02:44:09;23.65;;;12.23;;
13847;SDS011;6994;49.752;6.094;2024-01-11T02:46:36;20.70;;;12.20;;
13847;SDS011;6994;49.752;6.094;2024-01-11T02:49:03;18.12;;;11.65;;
13847;SDS011;6994;49.752;6.094;2024-01-11T02:51:31;20.10;;;11.10;;
13847;SDS011;6994;49.752;6.094;2024-01-11T02:53:58;30.07;;;18.17;;
13847;SDS011;6994;49.752;6.094;2024-01-11T02:56:25;23.38;;;12.88;;
13847;SDS011;6994;49.752;6.094;2024-01-11T02:58:52;20.42;;;11.45;;
13847;SDS011;6994;49.752;6.094;2024-01-11T03:01:19;20.15;;;11.68;;
13847;SDS011;6994;49.752;6.094;2024-01-11T03:03:47;23.25;;;10.25;;
13847;SDS011;6994;49.752;6.094;2024-01-11T03:06:14;21.17;;;12.00;;
13847;SDS011;6994;49.752;6.094;2024-01-11T03:08:41;21.80;;;11.35;;
13847;SDS011;6994;49.752;6.094;2024-01-11T03:11:08;24.05;;;11.32;;
13847;SDS011;6994;49.752;6.094;2024-01-11T03:13:35;19.23;;;9.90;;
13847;SDS011;6994;49.752;6.094;2024-01-11T03:16:04;19.40;;;12.27;;
13847;SDS011;6994;49.752;6.094;2024-01-11T03:18:30;28.57;;;17.33;;
13847;SDS011;6994;49.752;6.094;2024-01-11T03:20:57;23.40;;;12.63;;
13847;SDS011;6994;49.752;6.094;2024-01-11T03:23:24;22.08;;;11.63;;
13847;SDS011;6994;49.752;6.094;2024-01-11T03:25:52;24.48;;;11.35;;
13847;SDS011;6994;49.752;6.094;2024-01-11T03:28:19;20.62;;;12.13;;
13847;SDS011;6994;49.752;6.094;2024-01-11T03:30:47;22.60;;;10.65;;
13847;SDS011;6994;49.752;6.094;2024-01-11T03:33:14;28.27;;;17.30;;
13847;SDS011;6994;49.752;6.094;2024-01-11T03:35:41;23.65;;;13.15;;
13847;SDS011;6994;49.752;6.094;2024-01-11T03:38:08;21.15;;;11.65;;
13847;SDS011;6994;49.752;6.094;2024-01-11T03:40:36;18.73;;;10.90;;
13847;SDS011;6994;49.752;6.094;2024-01-11T03:43:04;20.55;;;11.15;;
13847;SDS011;6994;49.752;6.094;2024-01-11T03:45:31;24.83;;;11.30;;
13847;SDS011;6994;49.752;6.094;2024-01-11T03:47:58;21.85;;;11.02;;
13847;SDS011;6994;49.752;6.094;2024-01-11T03:50:25;23.92;;;12.63;;
13847;SDS011;6994;49.752;6.094;2024-01-11T03:52:52;16.77;;;9.63;;
13847;SDS011;6994;49.752;6.094;2024-01-11T03:55:20;22.90;;;11.32;;
13847;SDS011;6994;49.752;6.094;2024-01-11T03:57:47;26.67;;;9.32;;
13847;SDS011;6994;49.752;6.094;2024-01-11T04:00:14;16.80;;;9.55;;
13847;SDS011;6994;49.752;6.094;2024-01-11T04:02:41;19.33;;;10.27;;
13847;SDS011;6994;49.752;6.094;2024-01-11T04:05:08;20.62;;;10.38;;
13847;SDS011;6994;49.752;6.094;2024-01-11T04:07:36;23.05;;;10.48;;
13847;SDS011;6994;49.752;6.094;2024-01-11T04:10:04;18.77;;;9.55;;
13847;SDS011;6994;49.752;6.094;2024-01-11T04:12:32;18.73;;;10.57;;
13847;SDS011;6994;49.752;6.094;2024-01-11T04:14:59;19.08;;;11.05;;
13847;SDS011;6994;49.752;6.094;2024-01-11T04:17:26;20.25;;;10.10;;
13847;SDS011;6994;49.752;6.094;2024-01-11T04:19:53;29.20;;;18.33;;
13847;SDS011;6994;49.752;6.094;2024-01-11T04:22:21;22.27;;;12.82;;
13847;SDS011;6994;49.752;6.094;2024-01-11T04:24:48;23.02;;;13.25;;
13847;SDS011;6994;49.752;6.094;2024-01-11T04:27:15;22.98;;;11.90;;
13847;SDS011;6994;49.752;6.094;2024-01-11T04:29:42;18.67;;;11.60;;
13847;SDS011;6994;49.752;6.094;2024-01-11T04:32:09;21.73;;;12.32;;
13847;SDS011;6994;49.752;6.094;2024-01-11T04:34:37;21.17;;;10.07;;
13847;SDS011;6994;49.752;6.094;2024-01-11T04:37:04;32.93;;;19.47;;
13847;SDS011;6994;49.752;6.094;2024-01-11T04:39:32;24.10;;;13.93;;
13847;SDS011;6994;49.752;6.094;2024-01-11T04:41:59;19.75;;;11.60;;
13847;SDS011;6994;49.752;6.094;2024-01-11T04:44:26;24.95;;;13.13;;
13847;SDS011;6994;49.752;6.094;2024-01-11T04:46:53;17.83;;;10.27;;
13847;SDS011;6994;49.752;6.094;2024-01-11T04:49:21;20.02;;;11.20;;
13847;SDS011;6994;49.752;6.094;2024-01-11T04:51:48;21.55;;;11.65;;
13847;SDS011;6994;49.752;6.094;2024-01-11T04:54:15;21.65;;;11.85;;
13847;SDS011;6994;49.752;6.094;2024-01-11T04:56:42;28.37;;;17.90;;
13847;SDS011;6994;49.752;6.094;2024-01-11T04:59:09;26.40;;;14.25;;
13847;SDS011;6994;49.752;6.094;2024-01-11T05:01:37;20.17;;;12.50;;
13847;SDS011;6994;49.752;6.094;2024-01-11T05:04:04;24.27;;;12.13;;
13847;SDS011;6994;49.752;6.094;2024-01-11T05:06:31;23.73;;;11.48;;
13847;SDS011;6994;49.752;6.094;2024-01-11T05:08:58;24.55;;;11.98;;
13847;SDS011;6994;49.752;6.094;2024-01-11T05:11:26;22.05;;;12.18;;
13847;SDS011;6994;49.752;6.094;2024-01-11T05:13:53;23.83;;;12.20;;
13847;SDS011;6994;49.752;6.094;2024-01-11T05:16:20;20.42;;;12.32;;
13847;SDS011;6994;49.752;6.094;2024-01-11T05:18:47;23.30;;;10.75;;
13847;SDS011;6994;49.752;6.094;2024-01-11T05:21:14;23.42;;;12.45;;
13847;SDS011;6994;49.752;6.094;2024-01-11T05:23:42;23.90;;;12.18;;
13847;SDS011;6994;49.752;6.094;2024-01-11T05:26:09;22.98;;;12.13;;
13847;SDS011;6994;49.752;6.094;2024-01-11T05:28:36;22.95;;;12.43;;
13847;SDS011;6994;49.752;6.094;2024-01-11T05:31:05;29.12;;;13.18;;
13847;SDS011;6994;49.752;6.094;2024-01-11T05:33:34;24.17;;;12.32;;
13847;SDS011;6994;49.752;6.094;2024-01-11T05:36:02;27.83;;;12.85;;
13847;SDS011;6994;49.752;6.094;2024-01-11T05:38:28;20.98;;;11.45;;
13847;SDS011;6994;49.752;6.094;2024-01-11T05:40:56;20.60;;;11.07;;
13847;SDS011;6994;49.752;6.094;2024-01-11T05:43:23;25.30;;;11.88;;
13847;SDS011;6994;49.752;6.094;2024-01-11T05:45:50;20.02;;;11.57;;
13847;SDS011;6994;49.752;6.094;2024-01-11T05:48:17;34.07;;;20.97;;
13847;SDS011;6994;49.752;6.094;2024-01-11T05:50:44;23.25;;;13.88;;
13847;SDS011;6994;49.752;6.094;2024-01-11T05:53:12;22.20;;;13.50;;
13847;SDS011;6994;49.752;6.094;2024-01-11T05:55:40;23.80;;;13.05;;
13847;SDS011;6994;49.752;6.094;2024-01-11T05:58:07;21.92;;;13.02;;
13847;SDS011;6994;49.752;6.094;2024-01-11T06:00:34;23.35;;;12.85;;
13847;SDS011;6994;49.752;6.094;2024-01-11T06:03:01;22.20;;;12.60;;
13847;SDS011;6994;49.752;6.094;2024-01-11T06:05:29;24.33;;;13.32;;
13847;SDS011;6994;49.752;6.094;2024-01-11T06:07:56;24.35;;;12.73;;
13847;SDS011;6994;49.752;6.094;2024-01-11T06:10:24;24.75;;;11.68;;
13847;SDS011;6994;49.752;6.094;2024-01-11T06:12:51;22.23;;;12.93;;
13847;SDS011;6994;49.752;6.094;2024-01-11T06:15:18;28.48;;;13.80;;
13847;SDS011;6994;49.752;6.094;2024-01-11T06:17:45;28.87;;;19.07;;
13847;SDS011;6994;49.752;6.094;2024-01-11T06:20:13;26.17;;;14.23;;
13847;SDS011;6994;49.752;6.094;2024-01-11T06:22:41;27.27;;;13.48;;
13847;SDS011;6994;49.752;6.094;2024-01-11T06:25:08;29.40;;;13.98;;
13847;SDS011;6994;49.752;6.094;2024-01-11T06:27:36;19.70;;;11.38;;
13847;SDS011;6994;49.752;6.094;2024-01-11T06:30:03;31.57;;;19.73;;
13847;SDS011;6994;49.752;6.094;2024-01-11T06:32:30;22.73;;;14.30;;
13847;SDS011;6994;49.752;6.094;2024-01-11T06:34:57;22.75;;;12.90;;
13847;SDS011;6994;49.752;6.094;2024-01-11T06:37:25;23.30;;;12.25;;
13847;SDS011;6994;49.752;6.094;2024-01-11T06:39:52;29.60;;;18.20;;
13847;SDS011;6994;49.752;6.094;2024-01-11T06:42:20;23.30;;;13.60;;
13847;SDS011;6994;49.752;6.094;2024-01-11T06:44:48;22.65;;;12.95;;
13847;SDS011;6994;49.752;6.094;2024-01-11T06:47:16;27.27;;;13.32;;
13847;SDS011;6994;49.752;6.094;2024-01-11T06:49:43;24.77;;;12.65;;
13847;SDS011;6994;49.752;6.094;2024-01-11T06:52:10;25.05;;;12.27;;
13847;SDS011;6994;49.752;6.094;2024-01-11T06:54:39;32.27;;;20.77;;
13847;SDS011;6994;49.752;6.094;2024-01-11T06:57:05;27.37;;;14.70;;
13847;SDS011;6994;49.752;6.094;2024-01-11T06:59:33;25.10;;;12.80;;
13847;SDS011;6994;49.752;6.094;2024-01-11T07:02:01;23.23;;;12.35;;
13847;SDS011;6994;49.752;6.094;2024-01-11T07:04:29;24.83;;;12.32;;
13847;SDS011;6994;49.752;6.094;2024-01-11T07:06:56;27.83;;;13.20;;
13847;SDS011;6994;49.752;6.094;2024-01-11T07:09:23;28.40;;;14.13;;
13847;SDS011;6994;49.752;6.094;2024-01-11T07:11:51;23.02;;;12.18;;
13847;SDS011;6994;49.752;6.094;2024-01-11T07:14:19;23.52;;;13.00;;
13847;SDS011;6994;49.752;6.094;2024-01-11T07:16:47;23.23;;;12.95;;
13847;SDS011;6994;49.752;6.094;2024-01-11T07:19:14;20.25;;;11.93;;
13847;SDS011;6994;49.752;6.094;2024-01-11T07:21:41;25.08;;;12.60;;
13847;SDS011;6994;49.752;6.094;2024-01-11T07:24:09;25.00;;;12.05;;
13847;SDS011;6994;49.752;6.094;2024-01-11T07:26:37;24.95;;;13.52;;
13847;SDS011;6994;49.752;6.094;2024-01-11T07:29:05;25.10;;;12.93;;
13847;SDS011;6994;49.752;6.094;2024-01-11T07:31:33;27.75;;;13.35;;
13847;SDS011;6994;49.752;6.094;2024-01-11T07:34:00;23.12;;;12.32;;
13847;SDS011;6994;49.752;6.094;2024-01-11T07:36:27;26.75;;;12.95;;
13847;SDS011;6994;49.752;6.094;2024-01-11T07:38:54;29.07;;;18.70;;
13847;SDS011;6994;49.752;6.094;2024-01-11T07:41:21;24.27;;;13.70;;
13847;SDS011;6994;49.752;6.094;2024-01-11T07:43:49;25.05;;;12.60;;
13847;SDS011;6994;49.752;6.094;2024-01-11T07:46:16;24.05;;;13.25;;
13847;SDS011;6994;49.752;6.094;2024-01-11T07:48:43;21.90;;;11.95;;
13847;SDS011;6994;49.752;6.094;2024-01-11T07:51:10;28.80;;;18.87;;
13847;SDS011;6994;49.752;6.094;2024-01-11T07:53:38;28.62;;;13.45;;
13847;SDS011;6994;49.752;6.094;2024-01-11T07:56:06;23.48;;;13.25;;
13847;SDS011;6994;49.752;6.094;2024-01-11T07:58:34;25.15;;;14.32;;
13847;SDS011;6994;49.752;6.094;2024-01-11T08:01:01;23.35;;;13.20;;
13847;SDS011;6994;49.752;6.094;2024-01-11T08:03:29;24.42;;;12.40;;
13847;SDS011;6994;49.752;6.094;2024-01-11T08:05:56;24.00;;;12.85;;
13847;SDS011;6994;49.752;6.094;2024-01-11T08:08:24;24.48;;;12.95;;
13847;SDS011;6994;49.752;6.094;2024-01-11T08:10:52;19.70;;;11.93;;
13847;SDS011;6994;49.752;6.094;2024-01-11T08:13:20;20.60;;;11.85;;
13847;SDS011;6994;49.752;6.094;2024-01-11T08:15:47;28.10;;;12.90;;
13847;SDS011;6994;49.752;6.094;2024-01-11T08:18:14;20.35;;;11.90;;
13847;SDS011;6994;49.752;6.094;2024-01-11T08:20:41;27.52;;;14.00;;
13847;SDS011;6994;49.752;6.094;2024-01-11T08:23:09;27.35;;;13.40;;
13847;SDS011;6994;49.752;6.094;2024-01-11T08:25:37;25.00;;;14.25;;
13847;SDS011;6994;49.752;6.094;2024-01-11T08:28:05;24.58;;;13.25;;
13847;SDS011;6994;49.752;6.094;2024-01-11T08:30:32;25.00;;;12.60;;
13847;SDS011;6994;49.752;6.094;2024-01-11T08:33:00;24.08;;;12.40;;
13847;SDS011;6994;49.752;6.094;2024-01-11T08:35:27;27.52;;;13.20;;
13847;SDS011;6994;49.752;6.094;2024-01-11T08:37:55;24.37;;;12.98;;
13847;SDS011;6994;49.752;6.094;2024-01-11T08:40:23;21.42;;;11.80;;
13847;SDS011;6994;49.752;6.094;2024-01-11T08:42:51;25.12;;;12.70;;
13847;SDS011;6994;49.752;6.094;2024-01-11T08:45:19;20.12;;;12.43;;
13847;SDS011;6994;49.752;6.094;2024-01-11T08:47:46;21.85;;;12.30;;
13847;SDS011;6994;49.752;6.094;2024-01-11T08:50:13;20.02;;;11.93;;
13847;SDS011;6994;49.752;6.094;2024-01-11T08:52:41;20.12;;;10.70;;
13847;SDS011;6994;49.752;6.094;2024-01-11T08:55:08;19.30;;;11.77;;
13847;SDS011;6994;49.752;6.094;2024-01-11T08:57:36;24.58;;;12.52;;
13847;SDS011;6994;49.752;6.094;2024-01-11T09:00:04;22.15;;;13.32;;
13847;SDS011;6994;49.752;6.094;2024-01-11T09:02:31;19.60;;;12.50;;
13847;SDS011;6994;49.752;6.094;2024-01-11T09:04:58;25.98;;;12.20;;
13847;SDS011;6994;49.752;6.094;2024-01-11T09:07:25;21.02;;;12.80;;
13847;SDS011;6994;49.752;6.094;2024-01-11T09:09:53;22.00;;;12.52;;
13847;SDS011;6994;49.752;6.094;2024-01-11T09:12:21;22.10;;;14.65;;
13847;SDS011;6994;49.752;6.094;2024-01-11T09:14:48;21.12;;;13.10;;
13847;SDS011;6994;49.752;6.094;2024-01-11T09:17:16;24.37;;;12.73;;
13847;SDS011;6994;49.752;6.094;2024-01-11T09:19:43;20.50;;;11.95;;
13847;SDS011;6994;49.752;6.094;2024-01-11T09:22:11;23.02;;;11.98;;
13847;SDS011;6994;49.752;6.094;2024-01-11T09:24:39;21.92;;;11.98;;
13847;SDS011;6994;49.752;6.094;2024-01-11T09:27:06;19.52;;;12.07;;
13847;SDS011;6994;49.752;6.094;2024-01-11T09:29:33;20.37;;;10.90;;
13847;SDS011;6994;49.752;6.094;2024-01-11T09:32:01;24.83;;;15.50;;
13847;SDS011;6994;49.752;6.094;2024-01-11T09:34:28;24.92;;;12.30;;
13847;SDS011;6994;49.752;6.094;2024-01-11T09:36:56;19.98;;;13.05;;
13847;SDS011;6994;49.752;6.094;2024-01-11T09:39:24;17.20;;;10.15;;
13847;SDS011;6994;49.752;6.094;2024-01-11T09:41:57;20.05;;;11.30;;
13847;SDS011;6994;49.752;6.094;2024-01-11T09:44:19;18.05;;;10.48;;
13847;SDS011;6994;49.752;6.094;2024-01-11T09:46:46;19.07;;;12.93;;
13847;SDS011;6994;49.752;6.094;2024-01-11T09:49:14;18.52;;;12.13;;
13847;SDS011;6994;49.752;6.094;2024-01-11T09:51:42;16.45;;;10.57;;
13847;SDS011;6994;49.752;6.094;2024-01-11T09:54:09;17.62;;;9.18;;
13847;SDS011;6994;49.752;6.094;2024-01-11T09:56:37;17.58;;;12.77;;
13847;SDS011;6994;49.752;6.094;2024-01-11T09:59:04;16.77;;;10.32;;
13847;SDS011;6994;49.752;6.094;2024-01-11T10:01:31;20.98;;;10.65;;
13847;SDS011;6994;49.752;6.094;2024-01-11T10:03:58;15.25;;;10.13;;
13847;SDS011;6994;49.752;6.094;2024-01-11T10:06:26;16.33;;;9.35;;
13847;SDS011;6994;49.752;6.094;2024-01-11T10:08:54;14.82;;;9.57;;
13847;SDS011;6994;49.752;6.094;2024-01-11T10:11:22;14.52;;;9.25;;
13847;SDS011;6994;49.752;6.094;2024-01-11T10:13:55;15.35;;;9.68;;
13847;SDS011;6994;49.752;6.094;2024-01-11T10:16:17;17.08;;;9.85;;
13847;SDS011;6994;49.752;6.094;2024-01-11T10:18:44;17.95;;;9.85;;
13847;SDS011;6994;49.752;6.094;2024-01-11T10:21:12;19.90;;;13.10;;
13847;SDS011;6994;49.752;6.094;2024-01-11T10:23:39;18.90;;;11.50;;
13847;SDS011;6994;49.752;6.094;2024-01-11T10:26:06;18.23;;;10.05;;
13847;SDS011;6994;49.752;6.094;2024-01-11T10:28:36;17.05;;;9.95;;
13847;SDS011;6994;49.752;6.094;2024-01-11T10:31:03;17.83;;;9.98;;
13847;SDS011;6994;49.752;6.094;2024-01-11T10:33:30;16.17;;;10.25;;
13847;SDS011;6994;49.752;6.094;2024-01-11T10:35:57;18.02;;;10.55;;
13847;SDS011;6994;49.752;6.094;2024-01-11T10:38:26;13.48;;;9.15;;
13847;SDS011;6994;49.752;6.094;2024-01-11T10:40:54;17.12;;;10.50;;
13847;SDS011;6994;49.752;6.094;2024-01-11T10:43:21;14.07;;;9.05;;
13847;SDS011;6994;49.752;6.094;2024-01-11T10:45:49;14.07;;;9.23;;
13847;SDS011;6994;49.752;6.094;2024-01-11T10:48:17;15.73;;;9.90;;
13847;SDS011;6994;49.752;6.094;2024-01-11T10:50:45;15.32;;;9.65;;
13847;SDS011;6994;49.752;6.094;2024-01-11T10:53:19;16.62;;;10.57;;
13847;SDS011;6994;49.752;6.094;2024-01-11T10:55:59;15.95;;;9.82;;
13847;SDS011;6994;49.752;6.094;2024-01-11T10:58:26;14.55;;;9.00;;
13847;SDS011;6994;49.752;6.094;2024-01-11T11:00:53;14.60;;;9.48;;
13847;SDS011;6994;49.752;6.094;2024-01-11T11:03:20;16.10;;;9.15;;
13847;SDS011;6994;49.752;6.094;2024-01-11T11:05:47;13.65;;;8.18;;
13847;SDS011;6994;49.752;6.094;2024-01-11T11:08:14;15.20;;;8.82;;
13847;SDS011;6994;49.752;6.094;2024-01-11T11:10:42;18.27;;;9.55;;
13847;SDS011;6994;49.752;6.094;2024-01-11T11:13:10;14.35;;;8.77;;
13847;SDS011;6994;49.752;6.094;2024-01-11T11:15:37;15.35;;;9.48;;
13847;SDS011;6994;49.752;6.094;2024-01-11T11:18:05;12.68;;;8.65;;
13847;SDS011;6994;49.752;6.094;2024-01-11T11:20:33;12.93;;;7.22;;
13847;SDS011;6994;49.752;6.094;2024-01-11T11:23:07;9.98;;;6.43;;
13847;SDS011;6994;49.752;6.094;2024-01-11T11:25:34;10.98;;;6.95;;
13847;SDS011;6994;49.752;6.094;2024-01-11T11:28:01;13.85;;;7.55;;
13847;SDS011;6994;49.752;6.094;2024-01-11T11:30:28;12.20;;;10.30;;
13847;SDS011;6994;49.752;6.094;2024-01-11T11:32:56;14.32;;;9.63;;
13847;SDS011;6994;49.752;6.094;2024-01-11T11:35:23;11.93;;;9.85;;
13847;SDS011;6994;49.752;6.094;2024-01-11T11:37:56;11.23;;;8.50;;
13847;SDS011;6994;49.752;6.094;2024-01-11T11:40:37;14.57;;;11.07;;
13847;SDS011;6994;49.752;6.094;2024-01-11T11:43:01;12.15;;;9.05;;
13847;SDS011;6994;49.752;6.094;2024-01-11T11:45:29;13.05;;;8.70;;
13847;SDS011;6994;49.752;6.094;2024-01-11T11:47:57;13.43;;;8.82;;
13847;SDS011;6994;49.752;6.094;2024-01-11T11:50:24;11.43;;;8.80;;
13847;SDS011;6994;49.752;6.094;2024-01-11T11:52:56;14.85;;;11.25;;
13847;SDS011;6994;49.752;6.094;2024-01-11T11:55:25;10.75;;;8.02;;
13847;SDS011;6994;49.752;6.094;2024-01-11T11:57:53;12.00;;;10.38;;
13847;SDS011;6994;49.752;6.094;2024-01-11T12:00:21;11.23;;;8.45;;
13847;SDS011;6994;49.752;6.094;2024-01-11T12:02:49;12.05;;;9.15;;
13847;SDS011;6994;49.752;6.094;2024-01-11T12:05:17;12.60;;;9.00;;
13847;SDS011;6994;49.752;6.094;2024-01-11T12:07:45;11.02;;;8.15;;
13847;SDS011;6994;49.752;6.094;2024-01-11T12:10:13;11.12;;;8.48;;
13847;SDS011;6994;49.752;6.094;2024-01-11T12:12:41;11.25;;;7.90;;
13847;SDS011;6994;49.752;6.094;2024-01-11T12:15:09;11.23;;;8.27;;
13847;SDS011;6994;49.752;6.094;2024-01-11T12:17:37;12.93;;;7.97;;
13847;SDS011;6994;49.752;6.094;2024-01-11T12:20:05;10.65;;;8.07;;
13847;SDS011;6994;49.752;6.094;2024-01-11T12:22:32;10.70;;;7.28;;
13847;SDS011;6994;49.752;6.094;2024-01-11T12:25:01;9.48;;;7.12;;
13847;SDS011;6994;49.752;6.094;2024-01-11T12:27:28;9.70;;;7.28;;
13847;SDS011;6994;49.752;6.094;2024-01-11T12:29:56;13.10;;;7.53;;
13847;SDS011;6994;49.752;6.094;2024-01-11T12:32:24;10.43;;;6.72;;
13847;SDS011;6994;49.752;6.094;2024-01-11T12:34:51;12.95;;;7.20;;
13847;SDS011;6994;49.752;6.094;2024-01-11T12:37:19;10.63;;;6.85;;
13847;SDS011;6994;49.752;6.094;2024-01-11T12:39:46;10.98;;;6.97;;
13847;SDS011;6994;49.752;6.094;2024-01-11T12:42:13;10.13;;;7.50;;
13847;SDS011;6994;49.752;6.094;2024-01-11T12:44:40;14.32;;;8.00;;
13847;SDS011;6994;49.752;6.094;2024-01-11T12:47:07;14.63;;;7.20;;
13847;SDS011;6994;49.752;6.094;2024-01-11T12:49:35;11.40;;;6.80;;
13847;SDS011;6994;49.752;6.094;2024-01-11T12:52:02;10.68;;;6.82;;
13847;SDS011;6994;49.752;6.094;2024-01-11T12:54:29;10.48;;;6.80;;
13847;SDS011;6994;49.752;6.094;2024-01-11T12:56:56;11.57;;;8.50;;
13847;SDS011;6994;49.752;6.094;2024-01-11T12:59:27;18.25;;;9.43;;
13847;SDS011;6994;49.752;6.094;2024-01-11T13:01:54;11.20;;;6.53;;
13847;SDS011;6994;49.752;6.094;2024-01-11T13:04:21;12.57;;;8.30;;
13847;SDS011;6994;49.752;6.094;2024-01-11T13:06:48;8.30;;;6.78;;
13847;SDS011;6994;49.752;6.094;2024-01-11T13:09:16;10.52;;;6.70;;
13847;SDS011;6994;49.752;6.094;2024-01-11T13:11:44;10.18;;;6.90;;
13847;SDS011;6994;49.752;6.094;2024-01-11T13:14:12;10.63;;;7.18;;
13847;SDS011;6994;49.752;6.094;2024-01-11T13:16:40;13.68;;;7.57;;
13847;SDS011;6994;49.752;6.094;2024-01-11T13:19:08;10.35;;;6.28;;
13847;SDS011;6994;49.752;6.094;2024-01-11T13:21:36;8.68;;;6.30;;
13847;SDS011;6994;49.752;6.094;2024-01-11T13:24:03;8.80;;;5.82;;
13847;SDS011;6994;49.752;6.094;2024-01-11T13:26:30;10.35;;;6.22;;
13847;SDS011;6994;49.752;6.094;2024-01-11T13:28:57;10.57;;;6.87;;
13847;SDS011;6994;49.752;6.094;2024-01-11T13:31:25;13.68;;;6.50;;
13847;SDS011;6994;49.752;6.094;2024-01-11T13:33:53;8.15;;;6.18;;
13847;SDS011;6994;49.752;6.094;2024-01-11T13:36:21;8.55;;;5.85;;
13847;SDS011;6994;49.752;6.094;2024-01-11T13:38:49;8.13;;;5.65;;
13847;SDS011;6994;49.752;6.094;2024-01-11T13:41:16;9.20;;;7.35;;
13847;SDS011;6994;49.752;6.094;2024-01-11T13:43:44;8.75;;;6.05;;
13847;SDS011;6994;49.752;6.094;2024-01-11T13:46:11;7.97;;;5.95;;
13847;SDS011;6994;49.752;6.094;2024-01-11T13:48:38;9.57;;;5.90;;
13847;SDS011;6994;49.752;6.094;2024-01-11T13:51:05;7.15;;;5.30;;
13847;SDS011;6994;49.752;6.094;2024-01-11T13:53:32;9.75;;;7.47;;
13847;SDS011;6994;49.752;6.094;2024-01-11T13:56:00;7.97;;;5.78;;
13847;SDS011;6994;49.752;6.094;2024-01-11T13:58:27;9.10;;;5.95;;
13847;SDS011;6994;49.752;6.094;2024-01-11T14:00:54;10.00;;;6.28;;
13847;SDS011;6994;49.752;6.094;2024-01-11T14:03:21;8.73;;;5.72;;
13847;SDS011;6994;49.752;6.094;2024-01-11T14:05:48;10.90;;;5.82;;
13847;SDS011;6994;49.752;6.094;2024-01-11T14:08:16;9.27;;;6.50;;
13847;SDS011;6994;49.752;6.094;2024-01-11T14:10:43;9.38;;;5.80;;
13847;SDS011;6994;49.752;6.094;2024-01-11T14:13:10;8.38;;;5.40;;
13847;SDS011;6994;49.752;6.094;2024-01-11T14:15:37;6.97;;;5.05;;
13847;SDS011;6994;49.752;6.094;2024-01-11T14:18:05;8.32;;;6.12;;
13847;SDS011;6994;49.752;6.094;2024-01-11T14:20:32;8.80;;;4.72;;
13847;SDS011;6994;49.752;6.094;2024-01-11T14:22:59;12.02;;;7.10;;
13847;SDS011;6994;49.752;6.094;2024-01-11T14:25:26;6.75;;;5.15;;
13847;SDS011;6994;49.752;6.094;2024-01-11T14:27:53;7.90;;;5.32;;
13847;SDS011;6994;49.752;6.094;2024-01-11T14:30:21;9.55;;;6.65;;
13847;SDS011;6994;49.752;6.094;2024-01-11T14:32:48;7.90;;;5.40;;
13847;SDS011;6994;49.752;6.094;2024-01-11T14:35:15;6.68;;;5.40;;
13847;SDS011;6994;49.752;6.094;2024-01-11T14:37:42;8.15;;;5.15;;
13847;SDS011;6994;49.752;6.094;2024-01-11T14:40:10;7.75;;;5.82;;
13847;SDS011;6994;49.752;6.094;2024-01-11T14:42:40;9.30;;;6.15;;